Terminal Aerodrome Forecast
Issued by NWS Louisville, KY

Home | Current Version | Previous Version | Text Only | Print | Product List | Glossary On
Versions: 1 2 3 4 5 6 7 8 9 10 11 12
706
FTUS43 KLMK 122326
TAFLEX
TAF
KLEX 122326Z 1300/1324 28007KT P6SM FEW250
     FM130800 21005KT P6SM FEW100
     FM131400 20016G30KT P6SM SCT100=

USA.gov is the U.S. government's official web portal to all federal, state and local government web resources and services.